createdAt,value
2017-06-18T00:00:05.190Z,67.99
2017-06-18T00:01:01.435Z,68.04
2017-06-18T00:01:57.674Z,68.03
2017-06-18T00:02:53.955Z,68.05
2017-06-18T00:03:50.195Z,68.05
2017-06-18T00:04:46.434Z,68.15
2017-06-18T00:05:42.682Z,68.17
2017-06-18T00:06:39.214Z,68.22
2017-06-18T00:07:35.474Z,68.22
2017-06-18T00:08:31.714Z,68.27
2017-06-18T00:09:28.178Z,68.33
2017-06-18T00:10:24.414Z,68.38
2017-06-18T00:11:20.651Z,68.35
2017-06-18T00:12:16.903Z,68.33
2017-06-18T00:13:13.186Z,68.33
2017-06-18T00:14:09.438Z,68.35
2017-06-18T00:15:05.679Z,68.39
2017-06-18T00:16:01.932Z,68.39
2017-06-18T00:16:58.187Z,68.44
2017-06-18T00:17:54.474Z,68.47
2017-06-18T00:18:50.712Z,68.46
2017-06-18T00:19:46.955Z,68.50
2017-06-18T00:20:43.203Z,68.54
2017-06-18T00:21:39.430Z,68.60
2017-06-18T00:22:35.666Z,68.58
2017-06-18T00:23:31.936Z,68.62
2017-06-18T00:24:28.191Z,68.67
2017-06-18T00:25:24.422Z,68.67
2017-06-18T00:26:20.663Z,68.62
2017-06-18T00:27:16.906Z,68.62
2017-06-18T00:28:13.138Z,68.64
2017-06-18T00:29:09.394Z,68.62
2017-06-18T00:30:05.619Z,68.60
2017-06-18T00:31:01.858Z,68.68
2017-06-18T00:31:58.099Z,68.66
2017-06-18T00:32:54.347Z,68.69
2017-06-18T00:33:50.591Z,68.73
2017-06-18T00:34:46.846Z,68.70
2017-06-18T00:35:43.097Z,68.71
2017-06-18T00:36:39.339Z,68.72
2017-06-18T00:37:35.587Z,68.73
2017-06-18T00:38:31.835Z,68.72
2017-06-18T00:39:28.099Z,68.76
2017-06-18T00:40:24.342Z,68.74
2017-06-18T00:41:20.578Z,68.76
2017-06-18T00:42:16.806Z,68.78
2017-06-18T00:43:13.051Z,68.83
2017-06-18T00:44:09.329Z,68.81
2017-06-18T00:45:05.610Z,68.83
2017-06-18T00:46:01.863Z,68.84
2017-06-18T00:46:58.098Z,68.85
2017-06-18T00:47:54.344Z,68.85
2017-06-18T00:48:50.585Z,68.83
2017-06-18T00:49:46.839Z,68.85
2017-06-18T00:50:43.082Z,68.91
2017-06-18T00:51:39.311Z,68.96
2017-06-18T00:52:35.562Z,68.98
2017-06-18T00:53:31.795Z,69.01
2017-06-18T00:54:28.031Z,69.02
2017-06-18T00:55:24.295Z,69.02
2017-06-18T00:56:20.526Z,69.02
2017-06-18T00:57:16.768Z,69.05
2017-06-18T00:58:13.026Z,69.09
2017-06-18T00:59:09.287Z,69.15
2017-06-18T01:00:05.534Z,69.19
2017-06-18T01:01:01.798Z,69.25
2017-06-18T01:01:58.034Z,69.25
2017-06-18T01:02:54.275Z,69.26
2017-06-18T01:03:50.511Z,69.28
2017-06-18T01:04:46.770Z,69.37
2017-06-18T01:05:43.006Z,69.40
2017-06-18T01:06:39.255Z,69.40
2017-06-18T01:07:35.503Z,69.41
2017-06-18T01:08:31.746Z,69.43
2017-06-18T01:09:27.978Z,69.44
2017-06-18T01:10:24.206Z,69.37
2017-06-18T01:11:20.463Z,69.41
2017-06-18T01:12:16.697Z,69.42
2017-06-18T01:13:12.938Z,69.42
2017-06-18T01:14:09.207Z,69.47
2017-06-18T01:15:05.442Z,69.47
2017-06-18T01:16:01.687Z,69.45
2017-06-18T01:16:57.934Z,69.45
2017-06-18T01:17:54.171Z,69.45
2017-06-18T01:18:50.438Z,69.50
2017-06-18T01:19:46.690Z,69.52
2017-06-18T01:20:42.927Z,69.60
2017-06-18T01:21:39.202Z,69.58
2017-06-18T01:22:35.443Z,69.58
2017-06-18T01:23:31.683Z,69.61
2017-06-18T01:24:27.960Z,69.62
2017-06-18T01:25:24.213Z,69.62
2017-06-18T01:26:20.456Z,69.62
2017-06-18T01:27:16.734Z,69.63
2017-06-18T01:28:12.975Z,69.66
2017-06-18T01:29:09.298Z,69.66
2017-06-18T01:30:05.546Z,69.67
2017-06-18T01:31:01.803Z,69.68
2017-06-18T01:31:58.055Z,69.65
2017-06-18T01:32:54.306Z,69.66
2017-06-18T01:33:50.547Z,69.71
2017-06-18T01:34:46.784Z,69.72
2017-06-18T01:35:43.020Z,69.71
2017-06-18T01:36:39.250Z,69.73
2017-06-18T01:37:35.492Z,69.73
2017-06-18T01:38:31.751Z,69.73
2017-06-18T01:39:28.002Z,69.70
2017-06-18T01:40:24.234Z,69.70
2017-06-18T01:41:20.470Z,69.65
2017-06-18T01:42:16.707Z,69.63
2017-06-18T01:43:12.966Z,69.62
2017-06-18T01:44:09.210Z,69.63
2017-06-18T01:45:05.447Z,69.67
2017-06-18T01:46:01.682Z,69.68
2017-06-18T01:46:57.926Z,69.68
2017-06-18T01:47:54.199Z,69.71
2017-06-18T01:48:50.438Z,69.70
2017-06-18T01:49:46.679Z,69.68
2017-06-18T01:50:42.919Z,69.68
2017-06-18T01:51:39.166Z,69.67
2017-06-18T01:52:35.411Z,69.65
2017-06-18T01:53:31.671Z,69.61
2017-06-18T01:54:27.930Z,69.62
2017-06-18T01:55:24.175Z,69.63
2017-06-18T01:56:20.410Z,69.58
2017-06-18T01:57:16.648Z,69.73
2017-06-18T01:58:12.895Z,69.62
2017-06-18T01:59:09.158Z,69.70
2017-06-18T02:00:05.407Z,69.76
2017-06-18T02:01:01.668Z,69.71
2017-06-18T02:01:57.914Z,69.71
2017-06-18T02:02:54.153Z,69.71
2017-06-18T02:03:50.394Z,69.70
2017-06-18T02:04:46.656Z,69.68
2017-06-18T02:05:42.899Z,69.67
2017-06-18T02:06:39.138Z,69.64
2017-06-18T02:07:35.378Z,69.65
2017-06-18T02:08:31.631Z,69.69
2017-06-18T02:09:27.871Z,69.69
2017-06-18T02:10:24.191Z,69.73
2017-06-18T02:11:20.441Z,69.73
2017-06-18T02:12:16.675Z,69.79
2017-06-18T02:13:12.927Z,69.81
2017-06-18T02:14:09.158Z,69.76
2017-06-18T02:15:06.503Z,69.71
2017-06-18T02:16:02.770Z,69.74
2017-06-18T02:16:59.038Z,69.68
2017-06-18T02:17:55.291Z,69.74
2017-06-18T02:18:51.554Z,69.74
2017-06-18T02:19:47.799Z,69.79
2017-06-18T02:20:44.067Z,69.81
2017-06-18T02:21:40.303Z,69.86
2017-06-18T02:22:36.547Z,69.84
2017-06-18T02:23:32.790Z,69.84
2017-06-18T02:24:29.023Z,69.84
2017-06-18T02:25:25.282Z,69.95
2017-06-18T02:26:21.523Z,69.87
2017-06-18T02:27:17.763Z,69.90
2017-06-18T02:28:14.009Z,69.92
2017-06-18T02:29:10.264Z,69.88
2017-06-18T02:30:06.514Z,69.88
2017-06-18T02:31:02.807Z,69.89
2017-06-18T02:31:59.052Z,69.93
2017-06-18T02:32:55.287Z,69.91
2017-06-18T02:33:51.534Z,70.01
2017-06-18T02:34:47.782Z,69.96
2017-06-18T02:35:44.033Z,69.96
2017-06-18T02:36:40.312Z,69.91
2017-06-18T02:37:36.563Z,69.85
2017-06-18T02:38:32.802Z,69.83
2017-06-18T02:39:29.058Z,69.80
2017-06-18T02:40:25.303Z,69.81
2017-06-18T02:41:21.571Z,69.79
2017-06-18T02:42:17.841Z,69.80
2017-06-18T02:43:14.086Z,69.83
2017-06-18T02:44:10.331Z,69.79
2017-06-18T02:45:06.579Z,69.76
2017-06-18T02:46:02.835Z,69.77
2017-06-18T02:46:59.112Z,69.73
2017-06-18T02:47:55.356Z,69.76
2017-06-18T02:48:51.602Z,69.73
2017-06-18T02:49:47.862Z,69.74
2017-06-18T02:50:44.103Z,69.82
2017-06-18T02:51:40.360Z,69.79
2017-06-18T02:52:36.643Z,69.82
2017-06-18T02:53:32.886Z,69.78
2017-06-18T02:54:29.135Z,69.76
2017-06-18T02:55:25.374Z,69.79
2017-06-18T02:56:21.619Z,69.79
2017-06-18T02:57:17.875Z,69.78
2017-06-18T02:58:14.138Z,69.73
2017-06-18T02:59:10.371Z,69.72
2017-06-18T03:00:06.620Z,69.68
2017-06-18T03:01:02.867Z,69.67
2017-06-18T03:01:59.122Z,69.65
2017-06-18T03:02:55.363Z,69.65
2017-06-18T03:03:51.615Z,69.66
2017-06-18T03:04:47.862Z,69.73
2017-06-18T03:05:44.107Z,69.94
2017-06-18T03:06:40.405Z,70.04
2017-06-18T03:07:36.642Z,70.16
2017-06-18T03:08:32.914Z,70.16
2017-06-18T03:09:29.155Z,70.23
2017-06-18T03:10:25.414Z,70.38
2017-06-18T03:11:21.667Z,70.47
2017-06-18T03:12:17.919Z,70.52
2017-06-18T03:13:14.150Z,70.69
2017-06-18T03:14:10.406Z,70.75
2017-06-18T03:15:06.662Z,70.80
2017-06-18T03:16:02.911Z,70.83
2017-06-18T03:16:59.160Z,70.91
2017-06-18T03:17:55.400Z,70.98
2017-06-18T03:18:51.661Z,71.03
2017-06-18T03:19:47.951Z,71.05
2017-06-18T03:20:44.178Z,71.09
2017-06-18T03:21:45.142Z,71.11
2017-06-18T03:22:46.083Z,71.20
2017-06-18T03:23:47.023Z,71.17
2017-06-18T03:24:43.279Z,71.18
2017-06-18T03:25:39.519Z,71.28
2017-06-18T03:26:35.766Z,71.41
2017-06-18T03:27:32.035Z,71.59
2017-06-18T03:28:28.275Z,71.82
2017-06-18T03:29:24.551Z,71.95
2017-06-18T03:30:20.787Z,72.13
2017-06-18T03:31:17.047Z,72.20
2017-06-18T03:32:13.282Z,72.25
2017-06-18T03:33:09.527Z,72.31
2017-06-18T03:34:05.762Z,72.51
2017-06-18T03:35:02.050Z,72.60
2017-06-18T03:35:58.284Z,72.66
2017-06-18T03:36:54.526Z,72.73
2017-06-18T03:37:50.776Z,72.80
2017-06-18T03:38:47.015Z,72.91
2017-06-18T03:39:43.254Z,72.96
2017-06-18T03:40:39.503Z,73.04
2017-06-18T03:41:35.734Z,73.11
2017-06-18T03:42:32.030Z,73.21
2017-06-18T03:43:28.268Z,73.23
2017-06-18T03:44:24.527Z,73.25
2017-06-18T03:45:20.786Z,73.29
2017-06-18T03:46:17.027Z,73.35
2017-06-18T03:47:13.262Z,73.41
2017-06-18T03:48:09.502Z,73.47
2017-06-18T03:49:05.730Z,73.53
2017-06-18T03:50:01.986Z,73.56
2017-06-18T03:50:58.246Z,73.58
2017-06-18T03:51:54.487Z,73.62
2017-06-18T03:52:50.730Z,73.67
2017-06-18T03:53:46.970Z,73.75
2017-06-18T03:54:43.211Z,73.82
2017-06-18T03:55:39.451Z,73.83
2017-06-18T03:56:35.708Z,73.91
2017-06-18T03:57:31.947Z,73.97
2017-06-18T03:58:28.190Z,74.00
2017-06-18T03:59:24.429Z,74.03
2017-06-18T04:00:20.659Z,74.10
2017-06-18T04:01:16.922Z,74.16
2017-06-18T04:02:13.166Z,74.23
2017-06-18T04:03:09.406Z,74.26
2017-06-18T04:04:05.651Z,74.33
2017-06-18T04:05:01.890Z,74.28
2017-06-18T04:05:58.133Z,74.30
2017-06-18T04:06:54.387Z,74.33
2017-06-18T04:07:50.622Z,74.38
2017-06-18T04:08:46.879Z,74.50
2017-06-18T04:09:43.118Z,74.50
2017-06-18T04:10:39.355Z,74.52
2017-06-18T04:11:35.595Z,74.56
2017-06-18T04:12:31.854Z,74.57
2017-06-18T04:13:28.095Z,74.56
2017-06-18T04:14:24.346Z,74.57
2017-06-18T04:15:20.589Z,74.60
2017-06-18T04:16:16.836Z,74.66
2017-06-18T04:17:13.098Z,74.77
2017-06-18T04:18:09.329Z,74.77
2017-06-18T04:19:05.562Z,74.85
2017-06-18T04:20:01.801Z,74.93
2017-06-18T04:20:58.039Z,74.99
2017-06-18T04:21:54.283Z,75.06
2017-06-18T04:22:50.531Z,75.07
2017-06-18T04:23:46.794Z,75.02
2017-06-18T04:24:43.031Z,75.03
2017-06-18T04:25:39.294Z,75.01
2017-06-18T04:26:35.586Z,74.99
2017-06-18T04:27:31.884Z,74.92
2017-06-18T04:28:28.178Z,74.92
2017-06-18T04:29:24.479Z,74.88
2017-06-18T04:30:20.766Z,74.78
2017-06-18T04:31:17.007Z,74.73
2017-06-18T04:32:13.246Z,74.72
2017-06-18T04:33:09.490Z,74.71
2017-06-18T04:34:05.750Z,74.67
2017-06-18T04:35:01.988Z,74.66
2017-06-18T04:35:58.242Z,74.62
2017-06-18T04:36:54.527Z,74.60
2017-06-18T04:37:50.787Z,74.58
2017-06-18T04:38:47.043Z,74.54
2017-06-18T04:39:43.282Z,74.53
2017-06-18T04:40:39.523Z,74.49
2017-06-18T04:41:35.823Z,74.53
2017-06-18T04:42:32.059Z,74.61
2017-06-18T04:43:28.306Z,74.58
2017-06-18T04:44:24.580Z,74.60
2017-06-18T04:45:20.822Z,74.68
2017-06-18T04:46:17.099Z,74.68
2017-06-18T04:47:13.326Z,74.64
2017-06-18T04:48:09.566Z,74.59
2017-06-18T04:49:05.818Z,74.54
2017-06-18T04:50:02.087Z,74.56
2017-06-18T04:50:58.326Z,74.56
2017-06-18T04:51:54.576Z,74.57
2017-06-18T04:52:50.818Z,74.55
2017-06-18T04:53:47.071Z,74.57
2017-06-18T04:54:43.333Z,74.59
2017-06-18T04:55:39.571Z,74.56
2017-06-18T04:56:35.806Z,74.50
2017-06-18T04:57:32.042Z,74.46
2017-06-18T04:58:28.282Z,74.43
2017-06-18T04:59:24.538Z,74.40
2017-06-18T05:00:20.804Z,74.39
2017-06-18T05:01:17.034Z,74.40
2017-06-18T05:02:13.262Z,74.37
2017-06-18T05:03:09.494Z,74.40
2017-06-18T05:04:05.736Z,74.41
2017-06-18T05:05:01.993Z,74.39
2017-06-18T05:05:58.219Z,74.40
2017-06-18T05:06:54.491Z,74.40
2017-06-18T05:07:50.726Z,74.39
2017-06-18T05:08:46.950Z,74.35
2017-06-18T05:09:43.186Z,74.43
2017-06-18T05:10:39.426Z,74.48
2017-06-18T05:11:35.655Z,74.50
2017-06-18T05:12:31.897Z,74.52
2017-06-18T05:13:28.135Z,74.56
2017-06-18T05:14:24.359Z,74.57
2017-06-18T05:15:20.595Z,74.61
2017-06-18T05:16:16.838Z,74.59
2017-06-18T05:17:13.071Z,74.53
2017-06-18T05:18:09.315Z,74.48
2017-06-18T05:19:05.542Z,74.45
2017-06-18T05:20:01.790Z,74.39
2017-06-18T05:20:58.063Z,74.40
2017-06-18T05:21:54.300Z,74.40
2017-06-18T05:22:50.539Z,74.34
2017-06-18T05:23:46.762Z,74.29
2017-06-18T05:24:42.994Z,74.21
2017-06-18T05:25:39.250Z,74.21
2017-06-18T05:26:35.518Z,74.23
2017-06-18T05:27:31.790Z,74.31
2017-06-18T05:28:28.047Z,74.28
2017-06-18T05:29:24.274Z,74.27
2017-06-18T05:30:20.518Z,74.29
2017-06-18T05:31:16.762Z,74.32
2017-06-18T05:32:13.019Z,74.31
2017-06-18T05:33:09.247Z,74.23
2017-06-18T05:34:05.487Z,74.18
2017-06-18T05:35:01.727Z,74.19
2017-06-18T05:35:57.979Z,74.19
2017-06-18T05:36:54.231Z,74.20
2017-06-18T05:37:50.472Z,74.16
2017-06-18T05:38:46.745Z,74.17
2017-06-18T05:39:42.970Z,74.08
2017-06-18T05:40:39.210Z,74.09
2017-06-18T05:41:35.447Z,74.01
2017-06-18T05:42:31.702Z,73.95
2017-06-18T05:43:27.941Z,73.92
2017-06-18T05:44:24.167Z,73.89
2017-06-18T05:45:20.420Z,73.86
2017-06-18T05:46:16.670Z,73.89
2017-06-18T05:47:12.914Z,73.79
2017-06-18T05:48:09.159Z,73.73
2017-06-18T05:49:05.386Z,73.65
2017-06-18T05:50:01.630Z,73.58
2017-06-18T05:50:57.867Z,73.47
2017-06-18T05:51:54.107Z,73.44
2017-06-18T05:52:50.370Z,73.40
2017-06-18T05:53:46.599Z,73.41
2017-06-18T05:54:42.834Z,73.41
2017-06-18T05:55:39.078Z,73.34
2017-06-18T05:56:35.311Z,73.22
2017-06-18T05:57:31.595Z,73.10
2017-06-18T05:58:27.836Z,73.05
2017-06-18T05:59:24.088Z,73.01
2017-06-18T06:00:20.335Z,72.95
2017-06-18T06:01:16.577Z,72.85
2017-06-18T06:02:12.811Z,72.73
2017-06-18T06:03:09.066Z,72.69
2017-06-18T06:04:05.302Z,72.64
2017-06-18T06:05:01.542Z,72.67
2017-06-18T06:05:57.787Z,72.73
2017-06-18T06:06:54.031Z,72.63
2017-06-18T06:07:50.275Z,72.49
2017-06-18T06:08:46.514Z,72.39
2017-06-18T06:09:42.738Z,72.32
2017-06-18T06:10:38.970Z,72.26
2017-06-18T06:11:35.190Z,72.29
2017-06-18T06:12:31.414Z,72.16
2017-06-18T06:13:27.663Z,72.03
2017-06-18T06:14:23.903Z,71.89
2017-06-18T06:15:20.147Z,71.81
2017-06-18T06:16:16.391Z,71.72
2017-06-18T06:17:12.629Z,71.64
2017-06-18T06:18:08.879Z,71.51
2017-06-18T06:19:05.175Z,71.45
2017-06-18T06:20:01.415Z,71.39
2017-06-18T06:20:57.655Z,71.30
2017-06-18T06:21:53.894Z,71.21
2017-06-18T06:22:50.139Z,71.06
2017-06-18T06:23:46.386Z,70.90
2017-06-18T06:24:42.626Z,70.81
2017-06-18T06:25:38.846Z,70.73
2017-06-18T06:26:35.083Z,70.48
2017-06-18T06:27:31.307Z,70.38
2017-06-18T06:28:27.588Z,70.36
2017-06-18T06:29:23.818Z,70.37
2017-06-18T06:30:20.059Z,70.36
2017-06-18T06:31:16.311Z,70.26
2017-06-18T06:32:12.554Z,70.05
2017-06-18T06:33:08.798Z,69.91
2017-06-18T06:34:05.062Z,69.81
2017-06-18T06:35:01.306Z,69.80
2017-06-18T06:35:57.538Z,69.74
2017-06-18T06:36:53.766Z,69.70
2017-06-18T06:37:50.000Z,69.68
2017-06-18T06:38:46.246Z,69.71
2017-06-18T06:39:42.490Z,69.72
2017-06-18T06:40:38.730Z,69.68
2017-06-18T06:41:34.962Z,69.66
2017-06-18T06:42:31.225Z,69.61
2017-06-18T06:43:27.521Z,69.52
2017-06-18T06:44:23.771Z,69.46
2017-06-18T06:45:20.014Z,69.41
2017-06-18T06:46:16.255Z,69.30
2017-06-18T06:47:12.499Z,69.27
2017-06-18T06:48:08.734Z,69.18
2017-06-18T06:49:04.978Z,69.09
2017-06-18T06:50:01.210Z,69.02
2017-06-18T06:50:57.463Z,68.95
2017-06-18T06:51:53.704Z,68.92
2017-06-18T06:52:49.943Z,68.93
2017-06-18T06:53:46.172Z,68.98
2017-06-18T06:54:42.439Z,69.06
2017-06-18T06:55:38.674Z,69.08
2017-06-18T06:56:34.910Z,68.99
2017-06-18T06:57:31.146Z,68.97
2017-06-18T06:58:27.382Z,68.92
2017-06-18T06:59:23.643Z,68.91
2017-06-18T07:00:19.871Z,68.84
2017-06-18T07:01:16.119Z,68.83
2017-06-18T07:02:12.364Z,68.78
2017-06-18T07:03:08.607Z,68.68
2017-06-18T07:04:04.839Z,68.65
2017-06-18T07:05:01.090Z,68.62
2017-06-18T07:05:57.334Z,68.61
2017-06-18T07:06:53.571Z,68.41
2017-06-18T07:07:49.798Z,68.32
2017-06-18T07:08:46.046Z,68.24
2017-06-18T07:09:42.283Z,68.18
2017-06-18T07:10:38.546Z,68.16
2017-06-18T07:11:34.774Z,68.14
2017-06-18T07:12:31.010Z,68.01
2017-06-18T07:13:27.256Z,67.77
2017-06-18T07:14:23.494Z,67.58
2017-06-18T07:15:19.733Z,67.53
2017-06-18T07:16:15.980Z,67.35
2017-06-18T07:17:12.235Z,67.15
2017-06-18T07:18:08.550Z,66.69
2017-06-18T07:19:04.790Z,66.60
2017-06-18T07:20:01.032Z,66.32
2017-06-18T07:20:57.275Z,66.19
2017-06-18T07:21:53.522Z,66.10
2017-06-18T07:22:49.781Z,65.99
2017-06-18T07:23:46.041Z,65.99
2017-06-18T07:24:42.280Z,65.90
2017-06-18T07:25:38.514Z,65.85
2017-06-18T07:26:34.770Z,65.80
2017-06-18T07:27:31.011Z,65.79
2017-06-18T07:28:27.250Z,65.84
2017-06-18T07:29:23.483Z,65.78
2017-06-18T07:30:19.715Z,65.75
2017-06-18T07:31:15.950Z,65.67
2017-06-18T07:32:12.206Z,65.55
2017-06-18T07:33:08.439Z,65.27
2017-06-18T07:34:04.682Z,65.12
2017-06-18T07:35:00.923Z,65.05
2017-06-18T07:35:57.193Z,65.07
2017-06-18T07:36:53.411Z,65.09
2017-06-18T07:37:49.656Z,65.12
2017-06-18T07:38:45.906Z,65.10
2017-06-18T07:39:42.150Z,64.95
2017-06-18T07:40:38.382Z,64.83
2017-06-18T07:41:34.613Z,64.79
2017-06-18T07:42:30.839Z,64.74
2017-06-18T07:43:27.114Z,64.76
2017-06-18T07:44:23.347Z,64.79
2017-06-18T07:45:19.586Z,64.80
2017-06-18T07:46:18.588Z,64.78
2017-06-18T07:47:15.258Z,64.78
2017-06-18T07:48:11.531Z,64.85
2017-06-18T07:49:07.774Z,64.87
2017-06-18T07:50:04.022Z,64.80
2017-06-18T07:51:00.287Z,64.63
2017-06-18T07:51:56.538Z,64.48
2017-06-18T07:52:52.789Z,64.25
2017-06-18T07:53:49.067Z,64.11
2017-06-18T07:54:45.310Z,64.01
2017-06-18T07:55:41.582Z,63.93
2017-06-18T07:56:37.838Z,63.98
2017-06-18T07:57:34.074Z,64.01
2017-06-18T07:58:30.358Z,64.07
2017-06-18T07:59:26.626Z,64.20
2017-06-18T08:00:22.858Z,64.24
2017-06-18T08:01:19.090Z,64.27
2017-06-18T08:02:15.337Z,64.25
2017-06-18T08:03:11.586Z,64.12
2017-06-18T08:04:07.842Z,64.05
2017-06-18T08:05:05.010Z,63.96
2017-06-18T08:06:01.251Z,63.84
2017-06-18T08:06:57.499Z,63.70
2017-06-18T08:07:53.759Z,63.55
2017-06-18T08:08:49.998Z,63.33
2017-06-18T08:09:46.255Z,63.13
2017-06-18T08:10:42.507Z,63.10
2017-06-18T08:11:38.758Z,63.09
2017-06-18T08:12:34.995Z,63.11
2017-06-18T08:13:31.227Z,63.10
2017-06-18T08:14:27.470Z,62.94
2017-06-18T08:15:23.722Z,62.67
2017-06-18T08:16:19.970Z,62.60
2017-06-18T08:17:16.235Z,62.57
2017-06-18T08:18:12.447Z,62.56
2017-06-18T08:19:08.688Z,62.52
2017-06-18T08:20:04.975Z,62.51
2017-06-18T08:21:01.219Z,62.34
2017-06-18T08:21:57.458Z,62.15
2017-06-18T08:22:53.703Z,61.95
2017-06-18T08:23:49.947Z,61.94
2017-06-18T08:24:46.198Z,61.95
2017-06-18T08:25:42.462Z,61.96
2017-06-18T08:26:38.718Z,61.99
2017-06-18T08:27:34.960Z,62.01
2017-06-18T08:28:31.202Z,61.94
2017-06-18T08:29:27.460Z,61.79
2017-06-18T08:30:23.730Z,61.62
2017-06-18T08:31:19.989Z,61.48
2017-06-18T08:32:16.226Z,61.32
2017-06-18T08:33:12.470Z,61.28
2017-06-18T08:34:08.712Z,61.19
2017-06-18T08:35:04.960Z,61.17
2017-06-18T08:36:01.231Z,61.21
2017-06-18T08:36:57.479Z,61.17
2017-06-18T08:37:53.719Z,60.94
2017-06-18T08:38:49.954Z,60.90
2017-06-18T08:39:46.242Z,60.80
2017-06-18T08:40:42.539Z,60.71
2017-06-18T08:41:38.806Z,60.63
2017-06-18T08:42:35.063Z,60.62
2017-06-18T08:43:31.329Z,60.60
2017-06-18T08:44:27.586Z,60.76
2017-06-18T08:45:23.814Z,60.73
2017-06-18T08:46:20.054Z,60.21
2017-06-18T08:47:16.312Z,59.40
2017-06-18T08:48:12.562Z,59.23
2017-06-18T08:49:08.807Z,59.32
2017-06-18T08:50:05.074Z,59.45
2017-06-18T08:51:01.310Z,59.54
2017-06-18T08:51:57.571Z,59.60
2017-06-18T08:52:53.811Z,59.47
2017-06-18T08:53:50.050Z,59.41
2017-06-18T08:54:46.298Z,59.35
2017-06-18T08:55:42.539Z,59.32
2017-06-18T08:56:38.782Z,59.43
2017-06-18T08:57:35.045Z,59.43
2017-06-18T08:58:31.292Z,59.44
2017-06-18T08:59:27.538Z,59.37
2017-06-18T09:00:23.779Z,59.13
2017-06-18T09:01:20.034Z,59.06
2017-06-18T09:02:16.291Z,58.97
2017-06-18T09:03:12.549Z,58.96
2017-06-18T09:04:08.791Z,59.13
2017-06-18T09:05:05.046Z,59.13
2017-06-18T09:06:01.291Z,59.23
2017-06-18T09:06:57.539Z,59.35
2017-06-18T09:07:53.799Z,59.38
2017-06-18T09:08:50.434Z,59.31
2017-06-18T09:09:46.675Z,59.23
2017-06-18T09:10:42.924Z,59.31
2017-06-18T09:11:39.167Z,59.01
2017-06-18T09:12:35.414Z,58.75
2017-06-18T09:13:31.667Z,58.50
2017-06-18T09:14:27.916Z,58.18
2017-06-18T09:15:24.162Z,58.05
2017-06-18T09:16:20.415Z,57.47
2017-06-18T09:17:16.655Z,57.36
2017-06-18T09:18:12.914Z,57.05
2017-06-18T09:19:09.170Z,56.24
2017-06-18T09:20:05.410Z,55.44
2017-06-18T09:21:01.670Z,55.03
2017-06-18T09:21:57.914Z,54.99
2017-06-18T09:22:54.159Z,54.97
2017-06-18T09:23:50.410Z,54.93
2017-06-18T09:24:46.642Z,54.99
2017-06-18T09:25:42.900Z,55.13
2017-06-18T09:26:39.182Z,55.03
2017-06-18T09:27:35.438Z,54.99
2017-06-18T09:28:31.688Z,54.48
2017-06-18T09:29:27.938Z,54.66
2017-06-18T09:30:24.174Z,54.65
2017-06-18T09:31:20.423Z,54.15
2017-06-18T09:32:16.680Z,53.65
2017-06-18T09:33:12.934Z,52.97
2017-06-18T09:34:09.196Z,51.91
2017-06-18T09:35:05.426Z,51.22
2017-06-18T09:36:01.707Z,51.25
2017-06-18T09:36:57.987Z,51.11
2017-06-18T09:37:54.226Z,49.25
2017-06-18T09:38:50.482Z,49.31
2017-06-18T09:39:46.760Z,48.78
2017-06-18T09:40:43.063Z,48.71
2017-06-18T09:41:39.326Z,48.46
2017-06-18T09:42:35.582Z,48.60
2017-06-18T09:43:31.869Z,48.40
2017-06-18T09:44:28.134Z,48.26
2017-06-18T09:45:24.383Z,48.49
2017-06-18T09:46:20.630Z,48.49
2017-06-18T09:47:16.911Z,48.57
2017-06-18T09:48:13.194Z,48.67
2017-06-18T09:49:09.426Z,48.94
2017-06-18T09:50:05.698Z,49.30
2017-06-18T09:51:01.951Z,49.40
2017-06-18T09:51:58.205Z,49.29
2017-06-18T09:52:54.899Z,49.19
2017-06-18T09:53:51.151Z,49.15
2017-06-18T09:54:47.389Z,49.38
2017-06-18T09:55:43.646Z,48.93
2017-06-18T09:56:39.902Z,48.96
2017-06-18T09:57:36.145Z,48.98
2017-06-18T09:58:32.383Z,48.97
2017-06-18T09:59:28.646Z,49.06
2017-06-18T10:00:24.902Z,48.81
2017-06-18T10:01:21.186Z,48.27
2017-06-18T10:02:17.457Z,47.66
2017-06-18T10:03:13.694Z,47.33
2017-06-18T10:04:10.139Z,47.00
2017-06-18T10:05:06.620Z,46.42
2017-06-18T10:06:02.886Z,46.20
2017-06-18T10:06:59.143Z,46.13
2017-06-18T10:07:55.399Z,46.13
2017-06-18T10:08:51.651Z,45.96
2017-06-18T10:09:47.895Z,45.70
2017-06-18T10:10:44.133Z,45.29
2017-06-18T10:11:40.523Z,45.12
2017-06-18T10:12:36.794Z,45.32
2017-06-18T10:13:33.045Z,45.44
2017-06-18T10:14:29.274Z,45.49
2017-06-18T10:15:25.517Z,45.53
2017-06-18T10:16:21.791Z,45.61
2017-06-18T10:17:18.252Z,45.31
2017-06-18T10:18:14.494Z,45.19
2017-06-18T10:19:10.747Z,45.48
2017-06-18T10:20:06.995Z,45.74
2017-06-18T10:21:03.238Z,45.88
2017-06-18T10:22:04.183Z,45.70
2017-06-18T10:23:05.118Z,45.69
2017-06-18T10:24:06.056Z,45.82
2017-06-18T10:25:02.286Z,45.96
2017-06-18T10:25:58.534Z,45.86
2017-06-18T10:26:54.799Z,45.81
2017-06-18T10:27:51.058Z,45.77
2017-06-18T10:28:47.291Z,45.64
2017-06-18T10:29:43.532Z,45.26
2017-06-18T10:30:39.778Z,45.09
2017-06-18T10:31:36.018Z,45.20
2017-06-18T10:32:32.358Z,45.35
2017-06-18T10:33:28.606Z,45.63
2017-06-18T10:34:24.851Z,45.73
2017-06-18T10:35:21.115Z,44.95
2017-06-18T10:36:17.411Z,44.32
2017-06-18T10:37:13.711Z,43.85
2017-06-18T10:38:09.955Z,43.63
2017-06-18T10:39:06.215Z,43.27
2017-06-18T10:40:02.495Z,43.23
2017-06-18T10:40:58.727Z,43.10
2017-06-18T10:41:54.978Z,42.78
2017-06-18T10:42:51.259Z,42.22
2017-06-18T10:43:47.486Z,42.08
2017-06-18T10:44:43.723Z,41.73
2017-06-18T10:45:39.978Z,41.33
2017-06-18T10:46:36.222Z,41.10
2017-06-18T10:47:32.476Z,41.02
2017-06-18T10:48:28.742Z,40.43
2017-06-18T10:49:24.974Z,40.10
2017-06-18T10:50:21.214Z,39.69
2017-06-18T10:51:17.474Z,39.78
2017-06-18T10:52:13.714Z,39.77
2017-06-18T10:53:09.990Z,39.62
2017-06-18T10:54:07.095Z,39.75
2017-06-18T10:55:03.323Z,39.52
2017-06-18T10:55:59.567Z,39.22
2017-06-18T10:56:55.810Z,39.29
2017-06-18T10:57:52.062Z,39.36
2017-06-18T10:58:48.343Z,39.29
2017-06-18T10:59:44.598Z,39.32
2017-06-18T11:00:40.853Z,39.24
2017-06-18T11:01:37.094Z,39.16
2017-06-18T11:02:33.350Z,39.20
2017-06-18T11:03:29.594Z,38.86
2017-06-18T11:04:25.858Z,38.44
2017-06-18T11:05:22.106Z,38.04
2017-06-18T11:06:18.354Z,38.01
2017-06-18T11:07:14.598Z,37.79
2017-06-18T11:08:10.843Z,37.12
2017-06-18T11:09:07.130Z,37.05
2017-06-18T11:10:03.374Z,36.64
2017-06-18T11:10:59.619Z,36.58
2017-06-18T11:11:55.859Z,36.51
2017-06-18T11:12:52.118Z,36.39
2017-06-18T11:13:48.378Z,36.61
2017-06-18T11:14:44.644Z,37.08
2017-06-18T11:15:40.919Z,37.19
2017-06-18T11:16:37.158Z,37.27
2017-06-18T11:17:33.394Z,37.20
2017-06-18T11:18:29.635Z,36.95
2017-06-18T11:19:25.866Z,36.88
2017-06-18T11:20:22.146Z,36.66
2017-06-18T11:21:18.378Z,36.54
2017-06-18T11:22:14.619Z,36.46
2017-06-18T11:23:10.863Z,36.73
2017-06-18T11:24:07.126Z,36.97
2017-06-18T11:25:03.374Z,37.15
2017-06-18T11:25:59.627Z,37.23
2017-06-18T11:26:55.874Z,37.46
2017-06-18T11:27:52.114Z,37.71
2017-06-18T11:28:48.355Z,38.06
2017-06-18T11:29:44.611Z,38.19
2017-06-18T11:30:40.890Z,38.21
2017-06-18T11:31:37.147Z,38.28
2017-06-18T11:32:33.391Z,37.94
2017-06-18T11:33:29.639Z,37.84
2017-06-18T11:34:25.903Z,37.84
2017-06-18T11:35:22.146Z,37.71
2017-06-18T11:36:18.422Z,37.54
2017-06-18T11:37:14.668Z,37.58
2017-06-18T11:38:10.915Z,37.68
2017-06-18T11:39:07.166Z,37.64
2017-06-18T11:40:03.411Z,37.55
2017-06-18T11:40:59.679Z,37.70
2017-06-18T11:41:55.928Z,37.53
2017-06-18T11:42:52.166Z,37.83
2017-06-18T11:43:48.411Z,38.06
2017-06-18T11:44:44.654Z,37.97
2017-06-18T11:45:40.946Z,37.77
2017-06-18T11:46:37.218Z,37.70
2017-06-18T11:47:33.462Z,37.75
2017-06-18T11:48:29.706Z,37.50
2017-06-18T11:49:25.950Z,37.50
2017-06-18T11:50:22.195Z,37.57
2017-06-18T11:51:18.452Z,37.61
2017-06-18T11:52:14.692Z,37.49
2017-06-18T11:53:10.923Z,37.46
2017-06-18T11:54:07.167Z,37.38
2017-06-18T11:55:03.794Z,37.40
2017-06-18T11:56:00.059Z,37.61
2017-06-18T11:56:56.330Z,37.63
2017-06-18T11:57:52.563Z,37.71
2017-06-18T11:58:48.821Z,37.66
2017-06-18T11:59:45.054Z,37.68
2017-06-18T12:00:41.282Z,37.60
2017-06-18T12:01:37.526Z,37.35
2017-06-18T12:02:33.782Z,37.34
2017-06-18T12:03:30.022Z,37.16
2017-06-18T12:04:26.251Z,37.07